sensor_id;sensor_type;location;lat;lon;timestamp;P1;durP1;ratioP1;P2;durP2;ratioP2
18973;SDS011;9621;48.690;9.466;2023-11-19T00:01:02;12.10;;;8.50;;
18973;SDS011;9621;48.690;9.466;2023-11-19T00:03:30;10.73;;;8.77;;
18973;SDS011;9621;48.690;9.466;2023-11-19T00:05:58;14.23;;;8.13;;
18973;SDS011;9621;48.690;9.466;2023-11-19T00:08:25;12.37;;;8.47;;
18973;SDS011;9621;48.690;9.466;2023-11-19T00:10:52;12.60;;;8.83;;
18973;SDS011;9621;48.690;9.466;2023-11-19T00:13:20;10.83;;;8.43;;
18973;SDS011;9621;48.690;9.466;2023-11-19T00:15:48;12.57;;;8.50;;
18973;SDS011;9621;48.690;9.466;2023-11-19T00:18:15;11.53;;;8.50;;
18973;SDS011;9621;48.690;9.466;2023-11-19T00:20:41;11.90;;;9.10;;
18973;SDS011;9621;48.690;9.466;2023-11-19T00:23:09;15.50;;;8.77;;
18973;SDS011;9621;48.690;9.466;2023-11-19T00:25:36;10.77;;;8.30;;
18973;SDS011;9621;48.690;9.466;2023-11-19T00:28:04;10.67;;;8.00;;
18973;SDS011;9621;48.690;9.466;2023-11-19T00:30:32;10.73;;;7.63;;
18973;SDS011;9621;48.690;9.466;2023-11-19T00:32:59;13.57;;;8.43;;
18973;SDS011;9621;48.690;9.466;2023-11-19T00:35:26;12.47;;;8.10;;
18973;SDS011;9621;48.690;9.466;2023-11-19T00:37:52;10.60;;;8.40;;
18973;SDS011;9621;48.690;9.466;2023-11-19T00:40:20;15.10;;;8.57;;
18973;SDS011;9621;48.690;9.466;2023-11-19T00:42:48;11.83;;;8.60;;
18973;SDS011;9621;48.690;9.466;2023-11-19T00:45:15;11.77;;;8.67;;
18973;SDS011;9621;48.690;9.466;2023-11-19T00:47:43;11.80;;;8.00;;
18973;SDS011;9621;48.690;9.466;2023-11-19T00:50:10;9.93;;;7.80;;
18973;SDS011;9621;48.690;9.466;2023-11-19T00:52:38;10.57;;;8.03;;
18973;SDS011;9621;48.690;9.466;2023-11-19T00:55:05;11.40;;;8.10;;
18973;SDS011;9621;48.690;9.466;2023-11-19T00:57:32;10.73;;;7.70;;
18973;SDS011;9621;48.690;9.466;2023-11-19T01:00:00;12.63;;;8.67;;
18973;SDS011;9621;48.690;9.466;2023-11-19T01:02:31;11.67;;;8.60;;
18973;SDS011;9621;48.690;9.466;2023-11-19T01:05:01;13.53;;;9.67;;
18973;SDS011;9621;48.690;9.466;2023-11-19T01:07:27;9.33;;;6.97;;
18973;SDS011;9621;48.690;9.466;2023-11-19T01:09:54;8.90;;;6.70;;
18973;SDS011;9621;48.690;9.466;2023-11-19T01:12:21;10.53;;;7.57;;
18973;SDS011;9621;48.690;9.466;2023-11-19T01:14:48;8.63;;;6.70;;
18973;SDS011;9621;48.690;9.466;2023-11-19T01:17:15;9.90;;;7.57;;
18973;SDS011;9621;48.690;9.466;2023-11-19T01:19:42;9.70;;;7.50;;
18973;SDS011;9621;48.690;9.466;2023-11-19T01:22:10;10.23;;;7.30;;
18973;SDS011;9621;48.690;9.466;2023-11-19T01:24:37;12.20;;;8.30;;
18973;SDS011;9621;48.690;9.466;2023-11-19T01:27:04;8.93;;;7.13;;
18973;SDS011;9621;48.690;9.466;2023-11-19T01:29:31;8.77;;;6.70;;
18973;SDS011;9621;48.690;9.466;2023-11-19T01:31:58;8.67;;;6.23;;
18973;SDS011;9621;48.690;9.466;2023-11-19T01:34:25;9.73;;;6.33;;
18973;SDS011;9621;48.690;9.466;2023-11-19T01:36:52;6.73;;;5.40;;
18973;SDS011;9621;48.690;9.466;2023-11-19T01:39:20;7.37;;;5.47;;
18973;SDS011;9621;48.690;9.466;2023-11-19T01:41:47;6.53;;;5.53;;
18973;SDS011;9621;48.690;9.466;2023-11-19T01:44:14;9.00;;;5.40;;
18973;SDS011;9621;48.690;9.466;2023-11-19T01:46:41;7.20;;;5.03;;
18973;SDS011;9621;48.690;9.466;2023-11-19T01:49:10;7.93;;;5.50;;
18973;SDS011;9621;48.690;9.466;2023-11-19T01:51:38;7.50;;;5.50;;
18973;SDS011;9621;48.690;9.466;2023-11-19T01:54:06;7.07;;;5.20;;
18973;SDS011;9621;48.690;9.466;2023-11-19T01:56:35;6.40;;;4.97;;
18973;SDS011;9621;48.690;9.466;2023-11-19T01:59:03;5.07;;;4.10;;
18973;SDS011;9621;48.690;9.466;2023-11-19T02:01:31;6.60;;;4.50;;
18973;SDS011;9621;48.690;9.466;2023-11-19T02:04:01;6.83;;;4.70;;
18973;SDS011;9621;48.690;9.466;2023-11-19T02:06:29;5.50;;;4.47;;
18973;SDS011;9621;48.690;9.466;2023-11-19T02:08:59;6.37;;;3.83;;
18973;SDS011;9621;48.690;9.466;2023-11-19T02:11:26;6.63;;;4.10;;
18973;SDS011;9621;48.690;9.466;2023-11-19T02:13:55;4.57;;;3.57;;
18973;SDS011;9621;48.690;9.466;2023-11-19T02:16:23;4.50;;;3.70;;
18973;SDS011;9621;48.690;9.466;2023-11-19T02:18:50;6.00;;;3.97;;
18973;SDS011;9621;48.690;9.466;2023-11-19T02:21:17;4.20;;;3.27;;
18973;SDS011;9621;48.690;9.466;2023-11-19T02:23:44;3.20;;;2.90;;
18973;SDS011;9621;48.690;9.466;2023-11-19T02:26:13;5.33;;;2.83;;
18973;SDS011;9621;48.690;9.466;2023-11-19T02:28:45;4.80;;;3.30;;
18973;SDS011;9621;48.690;9.466;2023-11-19T02:31:13;4.37;;;3.27;;
18973;SDS011;9621;48.690;9.466;2023-11-19T02:33:40;3.27;;;2.83;;
18973;SDS011;9621;48.690;9.466;2023-11-19T02:36:07;3.30;;;2.60;;
18973;SDS011;9621;48.690;9.466;2023-11-19T02:38:34;3.70;;;2.60;;
18973;SDS011;9621;48.690;9.466;2023-11-19T02:41:03;3.77;;;2.57;;
18973;SDS011;9621;48.690;9.466;2023-11-19T02:43:31;3.00;;;2.70;;
18973;SDS011;9621;48.690;9.466;2023-11-19T02:46:00;3.60;;;2.20;;
18973;SDS011;9621;48.690;9.466;2023-11-19T02:48:27;2.63;;;1.90;;
18973;SDS011;9621;48.690;9.466;2023-11-19T02:50:55;2.27;;;1.77;;
18973;SDS011;9621;48.690;9.466;2023-11-19T02:53:23;2.03;;;1.60;;
18973;SDS011;9621;48.690;9.466;2023-11-19T02:55:52;3.37;;;1.83;;
18973;SDS011;9621;48.690;9.466;2023-11-19T02:58:26;1.83;;;1.57;;
18973;SDS011;9621;48.690;9.466;2023-11-19T03:00:53;1.97;;;1.70;;
18973;SDS011;9621;48.690;9.466;2023-11-19T03:03:26;1.27;;;1.07;;
18973;SDS011;9621;48.690;9.466;2023-11-19T03:06:03;1.10;;;1.00;;
18973;SDS011;9621;48.690;9.466;2023-11-19T03:08:31;3.23;;;1.20;;
18973;SDS011;9621;48.690;9.466;2023-11-19T03:10:58;1.40;;;1.20;;
18973;SDS011;9621;48.690;9.466;2023-11-19T03:13:25;2.00;;;1.23;;
18973;SDS011;9621;48.690;9.466;2023-11-19T03:15:52;1.80;;;1.17;;
18973;SDS011;9621;48.690;9.466;2023-11-19T03:18:19;2.03;;;1.10;;
18973;SDS011;9621;48.690;9.466;2023-11-19T03:20:48;3.60;;;1.47;;
18973;SDS011;9621;48.690;9.466;2023-11-19T03:23:15;1.30;;;1.10;;
18973;SDS011;9621;48.690;9.466;2023-11-19T03:25:42;3.17;;;1.33;;
18973;SDS011;9621;48.690;9.466;2023-11-19T03:28:09;1.43;;;1.13;;
18973;SDS011;9621;48.690;9.466;2023-11-19T03:30:37;1.03;;;0.93;;
18973;SDS011;9621;48.690;9.466;2023-11-19T03:33:04;2.93;;;1.20;;
18973;SDS011;9621;48.690;9.466;2023-11-19T03:35:31;1.33;;;1.00;;
18973;SDS011;9621;48.690;9.466;2023-11-19T03:38:00;1.57;;;0.90;;
18973;SDS011;9621;48.690;9.466;2023-11-19T03:40:27;1.40;;;1.00;;
18973;SDS011;9621;48.690;9.466;2023-11-19T03:42:55;2.57;;;1.27;;
18973;SDS011;9621;48.690;9.466;2023-11-19T03:45:23;1.27;;;1.00;;
18973;SDS011;9621;48.690;9.466;2023-11-19T03:47:50;3.20;;;1.10;;
18973;SDS011;9621;48.690;9.466;2023-11-19T03:50:17;1.40;;;1.20;;
18973;SDS011;9621;48.690;9.466;2023-11-19T03:52:45;2.17;;;1.10;;
18973;SDS011;9621;48.690;9.466;2023-11-19T03:55:13;1.73;;;1.20;;
18973;SDS011;9621;48.690;9.466;2023-11-19T03:57:40;3.47;;;0.90;;
18973;SDS011;9621;48.690;9.466;2023-11-19T04:00:06;1.93;;;1.10;;
18973;SDS011;9621;48.690;9.466;2023-11-19T04:02:35;0.93;;;0.80;;
18973;SDS011;9621;48.690;9.466;2023-11-19T04:05:02;1.80;;;1.10;;
18973;SDS011;9621;48.690;9.466;2023-11-19T04:07:30;1.60;;;1.20;;
18973;SDS011;9621;48.690;9.466;2023-11-19T04:09:57;1.87;;;0.87;;
18973;SDS011;9621;48.690;9.466;2023-11-19T04:12:25;2.57;;;0.90;;
18973;SDS011;9621;48.690;9.466;2023-11-19T04:14:52;4.37;;;1.03;;
18973;SDS011;9621;48.690;9.466;2023-11-19T04:17:19;3.40;;;0.90;;
18973;SDS011;9621;48.690;9.466;2023-11-19T04:19:46;1.43;;;0.83;;
18973;SDS011;9621;48.690;9.466;2023-11-19T04:22:13;2.37;;;1.00;;
18973;SDS011;9621;48.690;9.466;2023-11-19T04:24:40;2.40;;;0.90;;
18973;SDS011;9621;48.690;9.466;2023-11-19T04:27:09;1.70;;;0.90;;
18973;SDS011;9621;48.690;9.466;2023-11-19T04:29:37;0.90;;;0.70;;
18973;SDS011;9621;48.690;9.466;2023-11-19T04:32:04;1.47;;;0.80;;
18973;SDS011;9621;48.690;9.466;2023-11-19T04:34:32;0.97;;;0.80;;
18973;SDS011;9621;48.690;9.466;2023-11-19T04:36:59;0.97;;;0.87;;
18973;SDS011;9621;48.690;9.466;2023-11-19T04:39:28;1.23;;;0.80;;
18973;SDS011;9621;48.690;9.466;2023-11-19T04:41:55;1.10;;;0.77;;
18973;SDS011;9621;48.690;9.466;2023-11-19T04:44:22;0.73;;;0.63;;
18973;SDS011;9621;48.690;9.466;2023-11-19T04:46:50;2.27;;;0.73;;
18973;SDS011;9621;48.690;9.466;2023-11-19T04:49:17;1.23;;;0.90;;
18973;SDS011;9621;48.690;9.466;2023-11-19T04:51:44;2.00;;;0.63;;
18973;SDS011;9621;48.690;9.466;2023-11-19T04:54:13;0.80;;;0.60;;
18973;SDS011;9621;48.690;9.466;2023-11-19T04:56:40;1.93;;;0.80;;
18973;SDS011;9621;48.690;9.466;2023-11-19T04:59:06;1.27;;;0.70;;
18973;SDS011;9621;48.690;9.466;2023-11-19T05:01:36;0.93;;;0.60;;
18973;SDS011;9621;48.690;9.466;2023-11-19T05:04:06;0.60;;;0.60;;
18973;SDS011;9621;48.690;9.466;2023-11-19T05:06:34;0.80;;;0.70;;
18973;SDS011;9621;48.690;9.466;2023-11-19T05:09:01;2.40;;;1.07;;
18973;SDS011;9621;48.690;9.466;2023-11-19T05:11:32;1.30;;;0.40;;
18973;SDS011;9621;48.690;9.466;2023-11-19T05:13:59;0.80;;;0.60;;
18973;SDS011;9621;48.690;9.466;2023-11-19T05:16:26;0.87;;;0.63;;
18973;SDS011;9621;48.690;9.466;2023-11-19T05:18:53;0.50;;;0.50;;
18973;SDS011;9621;48.690;9.466;2023-11-19T05:21:21;0.60;;;0.60;;
18973;SDS011;9621;48.690;9.466;2023-11-19T05:23:48;2.33;;;0.60;;
18973;SDS011;9621;48.690;9.466;2023-11-19T05:26:18;1.07;;;0.53;;
18973;SDS011;9621;48.690;9.466;2023-11-19T05:28:46;0.50;;;0.50;;
18973;SDS011;9621;48.690;9.466;2023-11-19T05:31:13;1.10;;;0.60;;
18973;SDS011;9621;48.690;9.466;2023-11-19T05:33:42;1.27;;;0.60;;
18973;SDS011;9621;48.690;9.466;2023-11-19T05:36:10;2.40;;;0.50;;
18973;SDS011;9621;48.690;9.466;2023-11-19T05:38:39;3.10;;;0.60;;
18973;SDS011;9621;48.690;9.466;2023-11-19T05:41:06;0.50;;;0.50;;
18973;SDS011;9621;48.690;9.466;2023-11-19T05:43:33;0.50;;;0.50;;
18973;SDS011;9621;48.690;9.466;2023-11-19T05:46:00;0.87;;;0.67;;
18973;SDS011;9621;48.690;9.466;2023-11-19T05:48:27;0.80;;;0.50;;
18973;SDS011;9621;48.690;9.466;2023-11-19T05:50:55;1.87;;;0.50;;
18973;SDS011;9621;48.690;9.466;2023-11-19T05:53:22;0.43;;;0.43;;
18973;SDS011;9621;48.690;9.466;2023-11-19T05:55:51;0.50;;;0.40;;
18973;SDS011;9621;48.690;9.466;2023-11-19T05:58:22;0.60;;;0.50;;
18973;SDS011;9621;48.690;9.466;2023-11-19T06:00:53;0.57;;;0.57;;
18973;SDS011;9621;48.690;9.466;2023-11-19T06:03:20;2.03;;;0.57;;
18973;SDS011;9621;48.690;9.466;2023-11-19T06:05:47;0.55;;;0.50;;
18973;SDS011;9621;48.690;9.466;2023-11-19T06:08:14;0.80;;;0.50;;
18973;SDS011;9621;48.690;9.466;2023-11-19T06:10:41;1.03;;;0.67;;
18973;SDS011;9621;48.690;9.466;2023-11-19T06:13:12;0.53;;;0.50;;
18973;SDS011;9621;48.690;9.466;2023-11-19T06:15:40;1.97;;;0.60;;
18973;SDS011;9621;48.690;9.466;2023-11-19T06:18:07;0.50;;;0.50;;
18973;SDS011;9621;48.690;9.466;2023-11-19T06:20:35;2.17;;;0.50;;
18973;SDS011;9621;48.690;9.466;2023-11-19T06:23:01;0.93;;;0.50;;
18973;SDS011;9621;48.690;9.466;2023-11-19T06:25:28;1.53;;;0.60;;
18973;SDS011;9621;48.690;9.466;2023-11-19T06:27:55;0.40;;;0.40;;
18973;SDS011;9621;48.690;9.466;2023-11-19T06:30:24;1.33;;;0.40;;
18973;SDS011;9621;48.690;9.466;2023-11-19T06:32:53;2.50;;;0.57;;
18973;SDS011;9621;48.690;9.466;2023-11-19T06:35:20;0.50;;;0.50;;
18973;SDS011;9621;48.690;9.466;2023-11-19T06:37:47;0.60;;;0.50;;
18973;SDS011;9621;48.690;9.466;2023-11-19T06:40:14;0.40;;;0.40;;
18973;SDS011;9621;48.690;9.466;2023-11-19T06:42:41;0.75;;;0.40;;
18973;SDS011;9621;48.690;9.466;2023-11-19T06:45:08;0.93;;;0.50;;
18973;SDS011;9621;48.690;9.466;2023-11-19T06:47:37;0.60;;;0.52;;
18973;SDS011;9621;48.690;9.466;2023-11-19T06:50:04;2.13;;;0.90;;
18973;SDS011;9621;48.690;9.466;2023-11-19T06:52:32;2.40;;;0.97;;
18973;SDS011;9621;48.690;9.466;2023-11-19T06:54:59;3.30;;;0.82;;
18973;SDS011;9621;48.690;9.466;2023-11-19T06:57:26;1.52;;;0.73;;
18973;SDS011;9621;48.690;9.466;2023-11-19T06:59:54;2.78;;;0.88;;
18973;SDS011;9621;48.690;9.466;2023-11-19T07:02:21;0.80;;;0.60;;
18973;SDS011;9621;48.690;9.466;2023-11-19T07:04:49;3.05;;;0.82;;
18973;SDS011;9621;48.690;9.466;2023-11-19T07:07:17;3.78;;;1.42;;
18973;SDS011;9621;48.690;9.466;2023-11-19T07:09:45;2.38;;;1.00;;
18973;SDS011;9621;48.690;9.466;2023-11-19T07:12:13;3.67;;;0.60;;
18973;SDS011;9621;48.690;9.466;2023-11-19T07:14:40;1.63;;;0.60;;
18973;SDS011;9621;48.690;9.466;2023-11-19T07:17:08;2.35;;;1.00;;
18973;SDS011;9621;48.690;9.466;2023-11-19T07:19:35;1.17;;;0.90;;
18973;SDS011;9621;48.690;9.466;2023-11-19T07:22:04;0.73;;;0.70;;
18973;SDS011;9621;48.690;9.466;2023-11-19T07:24:32;0.80;;;0.70;;
18973;SDS011;9621;48.690;9.466;2023-11-19T07:26:59;1.17;;;0.53;;
18973;SDS011;9621;48.690;9.466;2023-11-19T07:29:29;3.17;;;1.02;;
18973;SDS011;9621;48.690;9.466;2023-11-19T07:31:56;1.48;;;0.80;;
18973;SDS011;9621;48.690;9.466;2023-11-19T07:34:23;0.98;;;0.70;;
18973;SDS011;9621;48.690;9.466;2023-11-19T07:36:51;1.73;;;0.95;;
18973;SDS011;9621;48.690;9.466;2023-11-19T07:39:19;2.72;;;0.80;;
18973;SDS011;9621;48.690;9.466;2023-11-19T07:41:47;1.45;;;0.52;;
18973;SDS011;9621;48.690;9.466;2023-11-19T07:44:14;0.73;;;0.60;;
18973;SDS011;9621;48.690;9.466;2023-11-19T07:46:41;1.48;;;0.60;;
18973;SDS011;9621;48.690;9.466;2023-11-19T07:49:10;0.63;;;0.50;;
18973;SDS011;9621;48.690;9.466;2023-11-19T07:51:36;3.17;;;1.25;;
18973;SDS011;9621;48.690;9.466;2023-11-19T07:54:04;0.95;;;0.70;;
18973;SDS011;9621;48.690;9.466;2023-11-19T07:56:32;1.10;;;0.98;;
18973;SDS011;9621;48.690;9.466;2023-11-19T07:59:00;3.22;;;1.10;;
18973;SDS011;9621;48.690;9.466;2023-11-19T08:01:27;2.95;;;0.80;;
18973;SDS011;9621;48.690;9.466;2023-11-19T08:03:55;1.38;;;0.60;;
18973;SDS011;9621;48.690;9.466;2023-11-19T08:06:22;0.50;;;0.50;;
18973;SDS011;9621;48.690;9.466;2023-11-19T08:08:49;0.75;;;0.50;;
18973;SDS011;9621;48.690;9.466;2023-11-19T08:11:16;3.08;;;0.50;;
18973;SDS011;9621;48.690;9.466;2023-11-19T08:13:46;1.50;;;0.60;;
18973;SDS011;9621;48.690;9.466;2023-11-19T08:16:13;2.05;;;0.55;;
18973;SDS011;9621;48.690;9.466;2023-11-19T08:18:41;0.68;;;0.50;;
18973;SDS011;9621;48.690;9.466;2023-11-19T08:21:08;0.40;;;0.40;;
18973;SDS011;9621;48.690;9.466;2023-11-19T08:23:36;2.50;;;0.50;;
18973;SDS011;9621;48.690;9.466;2023-11-19T08:26:03;0.40;;;0.40;;
18973;SDS011;9621;48.690;9.466;2023-11-19T08:28:30;1.08;;;0.82;;
18973;SDS011;9621;48.690;9.466;2023-11-19T08:31:00;2.70;;;0.82;;
18973;SDS011;9621;48.690;9.466;2023-11-19T08:33:29;2.78;;;0.60;;
18973;SDS011;9621;48.690;9.466;2023-11-19T08:35:55;0.85;;;0.73;;
18973;SDS011;9621;48.690;9.466;2023-11-19T08:38:23;0.70;;;0.60;;
18973;SDS011;9621;48.690;9.466;2023-11-19T08:40:50;0.50;;;0.50;;
18973;SDS011;9621;48.690;9.466;2023-11-19T08:43:17;0.93;;;0.60;;
18973;SDS011;9621;48.690;9.466;2023-11-19T08:45:44;2.40;;;0.40;;
18973;SDS011;9621;48.690;9.466;2023-11-19T08:48:12;0.68;;;0.68;;
18973;SDS011;9621;48.690;9.466;2023-11-19T08:50:39;1.95;;;0.85;;
18973;SDS011;9621;48.690;9.466;2023-11-19T08:53:06;0.98;;;0.52;;
18973;SDS011;9621;48.690;9.466;2023-11-19T08:55:32;0.73;;;0.52;;
18973;SDS011;9621;48.690;9.466;2023-11-19T08:57:59;0.50;;;0.50;;
18973;SDS011;9621;48.690;9.466;2023-11-19T09:00:27;1.20;;;0.70;;
18973;SDS011;9621;48.690;9.466;2023-11-19T09:02:54;0.60;;;0.47;;
18973;SDS011;9621;48.690;9.466;2023-11-19T09:05:24;0.60;;;0.43;;
18973;SDS011;9621;48.690;9.466;2023-11-19T09:07:51;0.38;;;0.38;;
18973;SDS011;9621;48.690;9.466;2023-11-19T09:10:18;1.35;;;0.70;;
18973;SDS011;9621;48.690;9.466;2023-11-19T09:12:45;1.30;;;0.60;;
18973;SDS011;9621;48.690;9.466;2023-11-19T09:15:12;0.65;;;0.60;;
18973;SDS011;9621;48.690;9.466;2023-11-19T09:17:39;0.57;;;0.55;;
18973;SDS011;9621;48.690;9.466;2023-11-19T09:20:07;1.75;;;0.60;;
18973;SDS011;9621;48.690;9.466;2023-11-19T09:22:38;0.80;;;0.52;;
18973;SDS011;9621;48.690;9.466;2023-11-19T09:25:05;1.05;;;0.60;;
18973;SDS011;9621;48.690;9.466;2023-11-19T09:27:33;1.77;;;0.70;;
18973;SDS011;9621;48.690;9.466;2023-11-19T09:30:00;1.00;;;0.70;;
18973;SDS011;9621;48.690;9.466;2023-11-19T09:32:29;1.02;;;0.70;;
18973;SDS011;9621;48.690;9.466;2023-11-19T09:34:55;1.33;;;0.70;;
18973;SDS011;9621;48.690;9.466;2023-11-19T09:37:22;0.68;;;0.45;;
18973;SDS011;9621;48.690;9.466;2023-11-19T09:39:51;1.23;;;0.93;;
18973;SDS011;9621;48.690;9.466;2023-11-19T09:42:18;1.38;;;0.70;;
18973;SDS011;9621;48.690;9.466;2023-11-19T09:44:45;1.73;;;0.52;;
18973;SDS011;9621;48.690;9.466;2023-11-19T09:47:13;0.98;;;0.60;;
18973;SDS011;9621;48.690;9.466;2023-11-19T09:49:41;1.13;;;0.65;;
18973;SDS011;9621;48.690;9.466;2023-11-19T09:52:08;1.10;;;0.40;;
18973;SDS011;9621;48.690;9.466;2023-11-19T09:54:35;1.00;;;0.60;;
18973;SDS011;9621;48.690;9.466;2023-11-19T09:57:04;2.00;;;0.70;;
18973;SDS011;9621;48.690;9.466;2023-11-19T09:59:35;2.08;;;0.47;;
18973;SDS011;9621;48.690;9.466;2023-11-19T10:02:05;0.60;;;0.50;;
18973;SDS011;9621;48.690;9.466;2023-11-19T10:04:33;0.70;;;0.57;;
18973;SDS011;9621;48.690;9.466;2023-11-19T10:07:02;0.63;;;0.45;;
18973;SDS011;9621;48.690;9.466;2023-11-19T10:09:29;0.60;;;0.40;;
18973;SDS011;9621;48.690;9.466;2023-11-19T10:11:56;0.43;;;0.40;;
18973;SDS011;9621;48.690;9.466;2023-11-19T10:14:24;0.73;;;0.50;;
18973;SDS011;9621;48.690;9.466;2023-11-19T10:16:51;1.10;;;0.50;;
18973;SDS011;9621;48.690;9.466;2023-11-19T10:19:19;0.88;;;0.60;;
18973;SDS011;9621;48.690;9.466;2023-11-19T10:21:46;0.52;;;0.50;;
18973;SDS011;9621;48.690;9.466;2023-11-19T10:24:13;0.90;;;0.60;;
18973;SDS011;9621;48.690;9.466;2023-11-19T10:26:40;1.50;;;0.70;;
18973;SDS011;9621;48.690;9.466;2023-11-19T10:29:08;0.32;;;0.32;;
18973;SDS011;9621;48.690;9.466;2023-11-19T10:31:36;0.85;;;0.50;;
18973;SDS011;9621;48.690;9.466;2023-11-19T10:34:03;0.30;;;0.25;;
18973;SDS011;9621;48.690;9.466;2023-11-19T10:36:50;0.63;;;0.30;;
18973;SDS011;9621;48.690;9.466;2023-11-19T10:39:16;2.17;;;0.80;;
18973;SDS011;9621;48.690;9.466;2023-11-19T10:41:45;2.80;;;1.00;;
18973;SDS011;9621;48.690;9.466;2023-11-19T10:44:23;0.80;;;0.60;;
18973;SDS011;9621;48.690;9.466;2023-11-19T10:47:02;1.35;;;0.73;;
18973;SDS011;9621;48.690;9.466;2023-11-19T10:49:34;0.63;;;0.50;;
18973;SDS011;9621;48.690;9.466;2023-11-19T10:52:01;0.90;;;0.50;;
18973;SDS011;9621;48.690;9.466;2023-11-19T10:54:28;1.40;;;0.50;;
18973;SDS011;9621;48.690;9.466;2023-11-19T10:56:59;0.57;;;0.40;;
18973;SDS011;9621;48.690;9.466;2023-11-19T10:59:28;0.75;;;0.30;;
18973;SDS011;9621;48.690;9.466;2023-11-19T11:01:57;0.98;;;0.60;;
18973;SDS011;9621;48.690;9.466;2023-11-19T11:04:28;1.63;;;0.50;;
18973;SDS011;9621;48.690;9.466;2023-11-19T11:06:57;1.45;;;0.60;;
18973;SDS011;9621;48.690;9.466;2023-11-19T11:09:26;0.95;;;0.50;;
18973;SDS011;9621;48.690;9.466;2023-11-19T11:11:54;0.68;;;0.50;;
18973;SDS011;9621;48.690;9.466;2023-11-19T11:14:22;1.20;;;0.55;;
18973;SDS011;9621;48.690;9.466;2023-11-19T11:16:50;0.57;;;0.50;;
18973;SDS011;9621;48.690;9.466;2023-11-19T11:19:19;0.60;;;0.40;;
18973;SDS011;9621;48.690;9.466;2023-11-19T11:21:49;0.40;;;0.40;;
18973;SDS011;9621;48.690;9.466;2023-11-19T11:24:29;1.73;;;0.50;;
18973;SDS011;9621;48.690;9.466;2023-11-19T11:27:24;0.93;;;0.50;;
18973;SDS011;9621;48.690;9.466;2023-11-19T11:30:07;1.70;;;0.50;;
18973;SDS011;9621;48.690;9.466;2023-11-19T11:32:44;0.40;;;0.40;;
18973;SDS011;9621;48.690;9.466;2023-11-19T11:35:24;1.48;;;0.40;;
18973;SDS011;9621;48.690;9.466;2023-11-19T11:38:01;1.50;;;0.50;;
18973;SDS011;9621;48.690;9.466;2023-11-19T11:40:30;0.40;;;0.40;;
18973;SDS011;9621;48.690;9.466;2023-11-19T11:42:57;3.45;;;0.50;;
18973;SDS011;9621;48.690;9.466;2023-11-19T11:45:35;0.90;;;0.50;;
18973;SDS011;9621;48.690;9.466;2023-11-19T11:48:15;0.50;;;0.50;;
18973;SDS011;9621;48.690;9.466;2023-11-19T11:50:54;1.02;;;0.50;;
18973;SDS011;9621;48.690;9.466;2023-11-19T11:53:25;0.80;;;0.60;;
18973;SDS011;9621;48.690;9.466;2023-11-19T11:55:53;0.63;;;0.50;;
18973;SDS011;9621;48.690;9.466;2023-11-19T11:58:28;1.38;;;0.50;;
18973;SDS011;9621;48.690;9.466;2023-11-19T12:01:00;0.95;;;0.50;;
18973;SDS011;9621;48.690;9.466;2023-11-19T12:03:36;1.30;;;0.60;;
18973;SDS011;9621;48.690;9.466;2023-11-19T12:06:09;0.65;;;0.65;;
18973;SDS011;9621;48.690;9.466;2023-11-19T12:08:39;2.55;;;0.60;;
18973;SDS011;9621;48.690;9.466;2023-11-19T12:11:10;0.88;;;0.55;;
18973;SDS011;9621;48.690;9.466;2023-11-19T12:16:31;0.88;;;0.68;;
18973;SDS011;9621;48.690;9.466;2023-11-19T12:19:03;1.83;;;0.70;;
18973;SDS011;9621;48.690;9.466;2023-11-19T12:21:31;0.60;;;0.50;;
18973;SDS011;9621;48.690;9.466;2023-11-19T12:24:00;1.95;;;0.60;;
18973;SDS011;9621;48.690;9.466;2023-11-19T12:26:38;0.85;;;0.43;;
18973;SDS011;9621;48.690;9.466;2023-11-19T12:29:06;2.38;;;0.65;;
18973;SDS011;9621;48.690;9.466;2023-11-19T12:31:33;1.63;;;0.60;;
18973;SDS011;9621;48.690;9.466;2023-11-19T12:34:07;0.55;;;0.50;;
18973;SDS011;9621;48.690;9.466;2023-11-19T12:36:38;1.63;;;0.60;;
18973;SDS011;9621;48.690;9.466;2023-11-19T12:39:08;1.20;;;0.50;;
18973;SDS011;9621;48.690;9.466;2023-11-19T12:41:53;1.55;;;0.68;;
18973;SDS011;9621;48.690;9.466;2023-11-19T12:44:20;1.83;;;0.50;;
18973;SDS011;9621;48.690;9.466;2023-11-19T12:46:59;0.90;;;0.52;;
18973;SDS011;9621;48.690;9.466;2023-11-19T12:49:29;1.60;;;0.47;;
18973;SDS011;9621;48.690;9.466;2023-11-19T12:51:56;2.80;;;0.60;;
18973;SDS011;9621;48.690;9.466;2023-11-19T12:54:33;0.65;;;0.47;;
18973;SDS011;9621;48.690;9.466;2023-11-19T12:57:00;1.27;;;0.75;;
18973;SDS011;9621;48.690;9.466;2023-11-19T12:59:27;1.42;;;0.47;;
18973;SDS011;9621;48.690;9.466;2023-11-19T13:01:55;0.80;;;0.50;;
18973;SDS011;9621;48.690;9.466;2023-11-19T13:04:22;1.20;;;0.63;;
18973;SDS011;9621;48.690;9.466;2023-11-19T13:06:53;2.60;;;0.68;;
18973;SDS011;9621;48.690;9.466;2023-11-19T13:09:22;1.45;;;0.52;;
18973;SDS011;9621;48.690;9.466;2023-11-19T13:11:51;2.78;;;1.20;;
18973;SDS011;9621;48.690;9.466;2023-11-19T13:14:19;3.08;;;0.70;;
18973;SDS011;9621;48.690;9.466;2023-11-19T13:16:46;2.03;;;1.00;;
18973;SDS011;9621;48.690;9.466;2023-11-19T13:19:13;0.60;;;0.50;;
18973;SDS011;9621;48.690;9.466;2023-11-19T13:21:41;2.38;;;0.70;;
18973;SDS011;9621;48.690;9.466;2023-11-19T13:24:11;1.63;;;0.50;;
18973;SDS011;9621;48.690;9.466;2023-11-19T13:26:38;1.33;;;0.70;;
18973;SDS011;9621;48.690;9.466;2023-11-19T13:29:06;1.80;;;0.63;;
18973;SDS011;9621;48.690;9.466;2023-11-19T13:31:33;3.70;;;0.50;;
18973;SDS011;9621;48.690;9.466;2023-11-19T13:34:00;0.43;;;0.43;;
18973;SDS011;9621;48.690;9.466;2023-11-19T13:36:27;2.28;;;0.95;;
18973;SDS011;9621;48.690;9.466;2023-11-19T13:38:54;0.70;;;0.50;;
18973;SDS011;9621;48.690;9.466;2023-11-19T13:41:24;0.95;;;0.52;;
18973;SDS011;9621;48.690;9.466;2023-11-19T13:43:51;2.05;;;0.70;;
18973;SDS011;9621;48.690;9.466;2023-11-19T13:46:19;2.08;;;0.73;;
18973;SDS011;9621;48.690;9.466;2023-11-19T13:48:46;1.98;;;0.50;;
18973;SDS011;9621;48.690;9.466;2023-11-19T13:51:14;1.65;;;0.50;;
18973;SDS011;9621;48.690;9.466;2023-11-19T13:53:41;2.95;;;1.08;;
18973;SDS011;9621;48.690;9.466;2023-11-19T13:56:09;1.95;;;0.50;;
18973;SDS011;9621;48.690;9.466;2023-11-19T13:58:36;1.67;;;0.60;;
18973;SDS011;9621;48.690;9.466;2023-11-19T14:01:03;4.07;;;0.73;;
18973;SDS011;9621;48.690;9.466;2023-11-19T14:03:32;0.68;;;0.55;;
18973;SDS011;9621;48.690;9.466;2023-11-19T14:05:59;2.45;;;0.90;;
18973;SDS011;9621;48.690;9.466;2023-11-19T14:08:26;1.83;;;0.70;;
18973;SDS011;9621;48.690;9.466;2023-11-19T14:10:52;2.58;;;0.80;;
18973;SDS011;9621;48.690;9.466;2023-11-19T14:13:21;1.67;;;0.68;;
18973;SDS011;9621;48.690;9.466;2023-11-19T14:15:48;1.50;;;0.80;;
18973;SDS011;9621;48.690;9.466;2023-11-19T14:18:16;1.63;;;1.02;;
18973;SDS011;9621;48.690;9.466;2023-11-19T14:20:44;2.08;;;1.00;;
18973;SDS011;9621;48.690;9.466;2023-11-19T14:23:11;3.45;;;1.15;;
18973;SDS011;9621;48.690;9.466;2023-11-19T14:25:38;4.20;;;1.50;;
18973;SDS011;9621;48.690;9.466;2023-11-19T14:28:05;2.00;;;1.13;;
18973;SDS011;9621;48.690;9.466;2023-11-19T14:30:32;2.20;;;1.30;;
18973;SDS011;9621;48.690;9.466;2023-11-19T14:32:59;3.00;;;1.13;;
18973;SDS011;9621;48.690;9.466;2023-11-19T14:35:27;2.78;;;1.15;;
18973;SDS011;9621;48.690;9.466;2023-11-19T14:37:56;0.95;;;0.75;;
18973;SDS011;9621;48.690;9.466;2023-11-19T14:40:23;1.35;;;0.90;;
18973;SDS011;9621;48.690;9.466;2023-11-19T14:42:50;1.25;;;0.93;;
18973;SDS011;9621;48.690;9.466;2023-11-19T14:45:17;2.33;;;1.10;;
18973;SDS011;9621;48.690;9.466;2023-11-19T14:47:45;2.13;;;1.20;;
18973;SDS011;9621;48.690;9.466;2023-11-19T14:50:11;0.90;;;0.70;;
18973;SDS011;9621;48.690;9.466;2023-11-19T14:52:38;1.30;;;0.80;;
18973;SDS011;9621;48.690;9.466;2023-11-19T14:55:07;3.20;;;0.85;;
18973;SDS011;9621;48.690;9.466;2023-11-19T14:57:35;3.70;;;0.82;;
18973;SDS011;9621;48.690;9.466;2023-11-19T15:00:04;2.25;;;0.90;;
18973;SDS011;9621;48.690;9.466;2023-11-19T15:02:38;0.93;;;0.60;;
18973;SDS011;9621;48.690;9.466;2023-11-19T15:05:05;1.80;;;0.68;;
18973;SDS011;9621;48.690;9.466;2023-11-19T15:07:34;1.58;;;0.82;;
18973;SDS011;9621;48.690;9.466;2023-11-19T15:10:01;2.33;;;0.90;;